createdAt,value
2022-12-29T00:17:54.178Z,25.23
2022-12-29T00:18:53.644Z,25.23
2022-12-29T00:19:53.610Z,25.23
2022-12-29T00:20:53.587Z,25.23
2022-12-29T00:21:53.571Z,25.23
2022-12-29T00:22:53.606Z,25.23
2022-12-29T00:23:53.551Z,25.21
2022-12-29T00:24:53.489Z,25.20
2022-12-29T00:25:54.126Z,25.24
2022-12-29T00:26:54.132Z,25.24
2022-12-29T00:27:54.434Z,25.21
2022-12-29T00:28:53.489Z,25.24
2022-12-29T00:29:54.121Z,25.24
2022-12-29T00:30:53.530Z,25.24
2022-12-29T00:31:53.348Z,25.23
2022-12-29T00:32:53.461Z,25.23
2022-12-29T00:33:53.338Z,25.24
2022-12-29T00:34:53.272Z,25.25
2022-12-29T00:35:53.280Z,25.21
2022-12-29T00:36:53.275Z,25.24
2022-12-29T00:37:53.198Z,25.24
2022-12-29T00:38:53.181Z,25.23
2022-12-29T00:39:53.163Z,25.25
2022-12-29T00:40:53.160Z,25.23
2022-12-29T00:41:53.125Z,25.23
2022-12-29T00:42:53.123Z,25.23
2022-12-29T00:43:53.097Z,25.23
2022-12-29T00:44:53.070Z,25.21
2022-12-29T00:45:53.082Z,25.23
2022-12-29T00:46:53.055Z,25.25
2022-12-29T00:47:53.034Z,25.24
2022-12-29T00:48:52.970Z,25.23
2022-12-29T00:49:53.019Z,25.24
2022-12-29T00:50:52.936Z,25.25
2022-12-29T00:51:52.982Z,25.23
2022-12-29T00:52:53.742Z,25.23
2022-12-29T00:53:52.886Z,25.21
2022-12-29T00:54:52.908Z,25.25
2022-12-29T00:55:52.863Z,25.21
2022-12-29T00:56:52.840Z,25.25
2022-12-29T00:57:52.821Z,25.24
2022-12-29T00:58:52.791Z,25.25
2022-12-29T00:59:52.831Z,25.25
2022-12-29T01:00:52.805Z,25.27
2022-12-29T01:01:52.894Z,25.25
2022-12-29T01:02:52.888Z,25.25
2022-12-29T01:03:52.688Z,25.25
2022-12-29T01:04:52.735Z,25.27
2022-12-29T01:05:52.733Z,25.24
2022-12-29T01:06:52.663Z,25.24
2022-12-29T01:07:52.639Z,25.25
2022-12-29T01:08:53.635Z,25.27
2022-12-29T01:09:52.610Z,25.27
2022-12-29T01:10:52.562Z,25.27
2022-12-29T01:11:52.535Z,25.25
2022-12-29T01:12:52.526Z,25.25
2022-12-29T01:13:52.537Z,25.25
2022-12-29T01:14:52.491Z,25.25
2022-12-29T01:15:52.507Z,25.25
2022-12-29T01:16:52.451Z,25.27
2022-12-29T01:17:52.499Z,25.24
2022-12-29T01:18:52.437Z,25.27
2022-12-29T01:19:52.399Z,25.28
2022-12-29T01:20:52.432Z,25.27
2022-12-29T01:21:52.372Z,25.27
2022-12-29T01:22:52.365Z,25.24
2022-12-29T01:23:52.366Z,25.27
2022-12-29T01:24:52.384Z,25.28
2022-12-29T01:25:52.285Z,25.28
2022-12-29T01:26:52.270Z,25.25
2022-12-29T01:27:52.235Z,25.28
2022-12-29T01:28:52.223Z,25.25
2022-12-29T01:29:52.238Z,25.24
2022-12-29T01:30:52.155Z,25.25
2022-12-29T01:31:52.159Z,25.25
2022-12-29T01:32:52.118Z,25.27
2022-12-29T01:33:52.212Z,25.25
2022-12-29T01:34:52.085Z,25.25
2022-12-29T01:35:52.056Z,25.24
2022-12-29T01:36:52.023Z,25.24
2022-12-29T01:37:52.104Z,25.25
2022-12-29T01:38:53.675Z,25.25
2022-12-29T01:39:51.976Z,25.25
2022-12-29T01:40:51.961Z,25.25
2022-12-29T01:41:51.939Z,25.25
2022-12-29T01:42:51.938Z,25.24
2022-12-29T01:43:52.183Z,25.27
2022-12-29T01:44:51.913Z,25.24
2022-12-29T01:45:51.861Z,25.25
2022-12-29T01:46:51.832Z,25.25
2022-12-29T01:47:51.806Z,25.25
2022-12-29T01:48:51.771Z,25.27
2022-12-29T01:49:51.775Z,25.24
2022-12-29T01:50:51.791Z,25.27
2022-12-29T01:51:51.728Z,25.27
2022-12-29T01:52:51.683Z,25.25
2022-12-29T01:53:52.322Z,25.25
2022-12-29T01:54:51.645Z,25.24
2022-12-29T01:55:51.616Z,25.24
2022-12-29T01:56:51.634Z,25.25
2022-12-29T01:57:51.623Z,25.24
2022-12-29T01:58:51.705Z,25.27
2022-12-29T01:59:51.552Z,25.25
2022-12-29T02:00:51.608Z,25.27
2022-12-29T02:01:51.740Z,25.27
2022-12-29T02:02:51.514Z,25.27
2022-12-29T02:03:51.670Z,25.27
2022-12-29T02:04:51.459Z,25.27
2022-12-29T02:05:51.447Z,25.27
2022-12-29T02:06:51.415Z,25.25
2022-12-29T02:07:51.400Z,25.25
2022-12-29T02:08:51.392Z,25.24
2022-12-29T02:09:51.359Z,25.24
2022-12-29T02:10:51.357Z,25.27
2022-12-29T02:11:51.373Z,25.24
2022-12-29T02:12:51.298Z,25.25
2022-12-29T02:13:51.289Z,25.27
2022-12-29T02:14:51.245Z,25.25
2022-12-29T02:15:51.240Z,25.25
2022-12-29T02:16:51.286Z,25.25
2022-12-29T02:17:51.237Z,25.24
2022-12-29T02:18:51.211Z,25.25
2022-12-29T02:19:51.210Z,25.24
2022-12-29T02:20:51.122Z,25.24
2022-12-29T02:21:51.115Z,25.28
2022-12-29T02:22:51.068Z,25.27
2022-12-29T02:23:51.112Z,25.30
2022-12-29T02:24:51.066Z,25.27
2022-12-29T02:29:51.306Z,25.27
2022-12-29T02:30:51.929Z,25.28
2022-12-29T07:21:45.171Z,25.34
2022-12-29T07:38:44.859Z,25.32
2022-12-29T07:39:44.796Z,25.34
2022-12-29T07:40:44.744Z,25.34
2022-12-29T07:41:44.715Z,25.34
2022-12-29T07:42:44.698Z,25.34
2022-12-29T07:43:44.666Z,25.35
2022-12-29T07:44:44.677Z,25.35
2022-12-29T07:45:44.662Z,25.35
2022-12-29T07:46:54.666Z,25.34
2022-12-29T07:47:45.606Z,25.34
2022-12-29T07:48:44.589Z,25.37
2022-12-29T07:49:44.556Z,25.37
2022-12-29T07:50:44.502Z,25.37
2022-12-29T07:51:44.495Z,25.35
2022-12-29T07:52:44.479Z,25.35
2022-12-29T07:53:44.439Z,25.35
2022-12-29T07:54:44.417Z,25.35
2022-12-29T07:55:44.416Z,25.37
2022-12-29T07:56:44.420Z,25.35
2022-12-29T07:57:44.408Z,25.34
2022-12-29T07:58:44.333Z,25.35
2022-12-29T07:59:44.798Z,25.38
2022-12-29T08:00:44.284Z,25.37
2022-12-29T08:01:44.369Z,25.38
2022-12-29T08:02:44.354Z,25.38
2022-12-29T08:03:44.268Z,25.37
2022-12-29T08:04:44.214Z,25.38
2022-12-29T08:05:44.176Z,25.38
2022-12-29T08:06:44.146Z,25.40
2022-12-29T08:07:44.134Z,25.38
2022-12-29T08:08:44.106Z,25.38
2022-12-29T08:09:44.136Z,25.35
2022-12-29T08:10:44.062Z,25.38
2022-12-29T08:11:44.013Z,25.38
2022-12-29T08:12:44.070Z,25.40
2022-12-29T08:13:43.966Z,25.40
2022-12-29T08:14:43.965Z,25.38
2022-12-29T08:15:43.983Z,25.41
2022-12-29T08:16:43.892Z,25.41
2022-12-29T08:17:43.856Z,25.38
2022-12-29T08:18:43.841Z,25.41
2022-12-29T08:19:43.863Z,25.42
2022-12-29T08:20:43.789Z,25.40
2022-12-29T08:21:43.745Z,25.41
2022-12-29T08:22:43.742Z,25.41
2022-12-29T08:23:43.705Z,25.40
2022-12-29T08:24:43.693Z,25.38
2022-12-29T08:25:43.662Z,25.42
2022-12-29T08:26:43.643Z,25.40
2022-12-29T08:27:43.604Z,25.40
2022-12-29T08:28:43.619Z,25.40
2022-12-29T08:29:43.544Z,25.41
2022-12-29T08:30:43.546Z,25.38
2022-12-29T08:31:43.548Z,25.40
2022-12-29T08:32:43.466Z,25.40
2022-12-29T08:33:43.441Z,25.38
2022-12-29T08:34:43.409Z,25.41
2022-12-29T08:35:43.387Z,25.40
2022-12-29T08:36:43.355Z,25.44
2022-12-29T08:37:43.355Z,25.40
2022-12-29T08:38:43.324Z,25.41
2022-12-29T08:39:43.290Z,25.41
2022-12-29T08:40:43.286Z,25.40
2022-12-29T08:41:43.225Z,25.40
2022-12-29T08:42:43.189Z,25.41
2022-12-29T08:43:43.184Z,25.42
2022-12-29T08:44:43.156Z,25.42
2022-12-29T08:45:43.318Z,25.44
2022-12-29T08:46:43.130Z,25.42
2022-12-29T08:47:43.088Z,25.42
2022-12-29T08:48:43.050Z,25.42
2022-12-29T08:49:43.016Z,25.45
2022-12-29T08:50:42.993Z,25.45
2022-12-29T08:51:42.986Z,25.46
2022-12-29T08:52:42.950Z,25.49
2022-12-29T08:53:42.919Z,25.52
2022-12-29T08:54:42.884Z,25.52
2022-12-29T08:55:42.882Z,25.53
2022-12-29T08:56:42.867Z,25.55
2022-12-29T08:57:42.803Z,25.57
2022-12-29T08:58:42.783Z,25.59
2022-12-29T08:59:42.748Z,25.59
2022-12-29T09:00:42.742Z,25.64
2022-12-29T09:01:42.819Z,25.64
2022-12-29T09:02:42.860Z,25.65
2022-12-29T09:04:43.687Z,25.66
2022-12-29T09:05:42.585Z,25.66
2022-12-29T09:06:42.573Z,25.70
2022-12-29T09:07:42.531Z,25.72
2022-12-29T09:08:42.510Z,25.73
2022-12-29T09:09:42.479Z,25.72
2022-12-29T09:10:42.470Z,25.76
2022-12-29T09:11:42.454Z,25.75
2022-12-29T09:12:42.425Z,25.76
2022-12-29T09:13:42.366Z,25.78
2022-12-29T09:14:42.331Z,25.79
2022-12-29T09:15:42.426Z,25.79
2022-12-29T09:16:42.397Z,25.82
2022-12-29T09:17:42.829Z,25.83
2022-12-29T09:18:42.218Z,25.82
2022-12-29T09:19:42.198Z,25.85
2022-12-29T09:20:42.170Z,25.83
2022-12-29T09:21:42.132Z,25.85
2022-12-29T09:22:42.146Z,25.85
2022-12-29T09:23:42.100Z,25.86
2022-12-29T09:24:42.089Z,25.86
2022-12-29T09:25:42.066Z,25.85
2022-12-29T09:26:46.868Z,25.86
2022-12-29T09:27:41.944Z,25.86
2022-12-29T09:28:41.936Z,25.86
2022-12-29T09:29:41.888Z,25.83
2022-12-29T09:30:41.848Z,25.83
2022-12-29T09:31:41.881Z,25.86
2022-12-29T09:32:45.016Z,25.85
2022-12-29T09:33:41.760Z,25.85
2022-12-29T09:34:41.739Z,25.85
2022-12-29T09:35:41.680Z,25.85
2022-12-29T09:36:41.871Z,25.86
2022-12-29T09:37:41.670Z,25.86
2022-12-29T09:38:41.608Z,25.86
2022-12-29T09:39:41.596Z,25.85
2022-12-29T09:40:41.531Z,25.85
2022-12-29T09:41:41.564Z,25.82
2022-12-29T09:42:41.482Z,25.82
2022-12-29T09:43:41.457Z,25.83
2022-12-29T09:44:41.428Z,25.85
2022-12-29T09:45:41.398Z,25.85
2022-12-29T09:46:41.424Z,25.86
2022-12-29T09:47:41.350Z,25.86
2022-12-29T09:48:41.352Z,25.83
2022-12-29T09:49:41.277Z,25.82
2022-12-29T09:50:41.260Z,25.83
2022-12-29T09:51:41.210Z,25.80
2022-12-29T09:52:41.171Z,25.85
2022-12-29T09:53:41.166Z,25.82
2022-12-29T09:54:41.106Z,25.82
2022-12-29T09:55:41.106Z,25.78
2022-12-29T09:56:41.092Z,25.73
2022-12-29T11:50:37.627Z,26.12
2022-12-29T11:51:37.603Z,26.12
2022-12-29T11:52:37.592Z,26.08
2022-12-29T11:53:37.564Z,26.10
2022-12-29T11:54:37.529Z,26.08
2022-12-29T11:55:37.490Z,26.10
2022-12-29T11:56:40.888Z,26.12
2022-12-29T11:57:37.430Z,26.08
2022-12-29T11:58:37.433Z,26.07
2022-12-29T11:59:37.362Z,26.08
2022-12-29T12:00:37.320Z,26.10
2022-12-29T12:01:37.320Z,26.08
2022-12-29T12:02:42.557Z,26.07
2022-12-29T12:03:38.478Z,26.07
2022-12-29T12:04:37.205Z,26.10
2022-12-29T12:05:37.191Z,26.07
2022-12-29T12:06:37.224Z,26.07
2022-12-29T12:07:37.144Z,26.07
2022-12-29T12:08:37.529Z,26.07
2022-12-29T12:09:37.062Z,26.06
2022-12-29T12:10:37.044Z,26.07
2022-12-29T12:11:37.003Z,26.04
2022-12-29T12:12:36.974Z,26.04
2022-12-29T12:13:36.965Z,26.07
2022-12-29T12:14:36.922Z,26.06
2022-12-29T12:15:41.847Z,26.04
2022-12-29T12:16:36.908Z,26.04
2022-12-29T12:17:36.840Z,26.07
2022-12-29T12:18:36.841Z,26.03
2022-12-29T12:19:36.820Z,26.04
2022-12-29T12:20:37.409Z,26.03
2022-12-29T12:21:40.470Z,26.06
2022-12-29T12:22:37.696Z,26.03
2022-12-29T12:23:36.707Z,26.03
2022-12-29T12:24:36.633Z,26.01
2022-12-29T12:25:36.742Z,26.04
2022-12-29T12:26:36.546Z,26.01
2022-12-29T12:27:36.550Z,26.04
2022-12-29T12:28:37.028Z,26.04
2022-12-29T12:29:36.453Z,26.04
2022-12-29T12:30:36.477Z,26.03
2022-12-29T12:31:36.483Z,26.01
2022-12-29T12:32:36.373Z,26.03
2022-12-29T12:33:36.319Z,26.04
2022-12-29T12:34:36.290Z,26.03
2022-12-29T12:35:36.233Z,26.03
2022-12-29T12:36:36.203Z,26.01
2022-12-29T12:37:36.162Z,26.01
2022-12-29T12:38:36.910Z,26.03
2022-12-29T12:39:36.376Z,26.01
2022-12-29T12:40:36.293Z,26.01
2022-12-29T12:41:36.275Z,26.01
2022-12-29T12:42:36.300Z,26.03
2022-12-29T12:43:36.199Z,25.97
2022-12-29T12:44:36.401Z,26.01
2022-12-29T12:45:36.139Z,26.00
2022-12-29T12:46:36.161Z,26.00
2022-12-29T12:47:37.007Z,25.99
2022-12-29T12:48:36.924Z,26.00
2022-12-29T12:49:36.511Z,26.00
2022-12-29T12:50:36.946Z,25.97
2022-12-29T12:51:36.000Z,25.99
2022-12-29T12:52:35.954Z,26.00
2022-12-29T12:53:35.909Z,25.99
2022-12-29T12:54:35.862Z,25.99
2022-12-29T12:55:35.802Z,25.97
2022-12-29T12:56:35.814Z,25.99
2022-12-29T12:57:35.797Z,25.96
2022-12-29T12:58:35.720Z,25.97
2022-12-29T12:59:35.750Z,26.01
2022-12-29T13:00:35.638Z,26.01
2022-12-29T13:01:35.760Z,26.00
2022-12-29T13:02:35.913Z,25.97
2022-12-29T13:03:35.561Z,25.97
2022-12-29T13:04:35.484Z,25.99
2022-12-29T13:05:35.443Z,25.96
2022-12-29T13:06:35.407Z,25.97
2022-12-29T13:07:35.365Z,25.99
2022-12-29T13:08:35.323Z,25.97
2022-12-29T13:09:35.304Z,25.99
2022-12-29T13:10:35.250Z,25.99
2022-12-29T13:11:35.214Z,25.99
2022-12-29T13:12:35.191Z,26.00
2022-12-29T13:13:35.175Z,25.99
2022-12-29T13:14:35.150Z,25.97
2022-12-29T13:15:35.124Z,25.99
2022-12-29T13:16:35.097Z,26.01
2022-12-29T13:17:34.994Z,25.99
2022-12-29T13:18:35.018Z,25.99
2022-12-29T13:19:34.925Z,25.97
2022-12-29T13:20:34.905Z,25.99
2022-12-29T13:21:34.859Z,25.99
2022-12-29T13:22:34.844Z,25.99
2022-12-29T13:23:34.776Z,25.97
2022-12-29T13:24:34.732Z,25.99
2022-12-29T13:25:34.785Z,25.96
2022-12-29T13:26:34.677Z,25.97
2022-12-29T13:27:37.590Z,25.99
2022-12-29T13:28:34.613Z,25.96
2022-12-29T13:29:34.563Z,25.97
2022-12-29T13:30:34.619Z,25.97
2022-12-29T13:31:34.600Z,25.96
2022-12-29T13:32:34.470Z,25.96
2022-12-29T13:33:34.431Z,25.93
2022-12-29T13:34:34.429Z,25.96
2022-12-29T13:35:34.379Z,25.92
2022-12-29T13:36:34.344Z,25.95
2022-12-29T13:37:34.317Z,25.95
2022-12-29T13:38:34.274Z,25.93
2022-12-29T13:39:34.234Z,25.92
2022-12-29T13:40:34.472Z,25.95
2022-12-29T13:41:34.182Z,25.93
2022-12-29T13:42:34.144Z,25.93
2022-12-29T13:43:34.111Z,25.93
2022-12-29T13:44:36.716Z,25.93
2022-12-29T13:45:34.140Z,25.90
2022-12-29T13:46:34.075Z,25.92
2022-12-29T13:47:33.997Z,25.92
2022-12-29T13:48:33.961Z,25.89
2022-12-29T13:49:33.937Z,25.89
2022-12-29T13:50:33.911Z,25.90
2022-12-29T13:51:33.887Z,25.90
2022-12-29T13:52:33.852Z,25.89
2022-12-29T13:53:33.846Z,25.87
2022-12-29T13:54:33.779Z,25.89
2022-12-29T13:55:33.786Z,25.87
2022-12-29T13:56:33.704Z,25.86
2022-12-29T13:57:33.711Z,25.87
2022-12-29T13:58:33.697Z,25.86
2022-12-29T13:59:33.641Z,25.89
2022-12-29T14:00:33.625Z,25.89
2022-12-29T14:01:33.667Z,25.86
2022-12-29T14:02:33.744Z,25.86
2022-12-29T14:03:33.626Z,25.87
2022-12-29T14:04:33.479Z,25.85
2022-12-29T14:05:33.499Z,25.86
2022-12-29T14:06:33.416Z,25.85
2022-12-29T14:07:33.381Z,25.86
2022-12-29T14:08:33.352Z,25.85
2022-12-29T14:09:35.433Z,25.83
2022-12-29T14:10:33.310Z,25.83
2022-12-29T14:11:33.271Z,25.85
2022-12-29T14:12:33.249Z,25.82
2022-12-29T14:13:33.224Z,25.83
2022-12-29T14:14:33.205Z,25.80
2022-12-29T14:15:33.161Z,25.79
2022-12-29T14:16:33.182Z,25.82
2022-12-29T14:17:33.105Z,25.83
2022-12-29T14:18:33.066Z,25.80
2022-12-29T14:19:33.043Z,25.79
2022-12-29T14:20:33.021Z,25.80
2022-12-29T14:21:33.012Z,25.80
2022-12-29T14:22:33.575Z,25.80
2022-12-29T14:23:32.990Z,25.80
2022-12-29T14:24:32.915Z,25.78
2022-12-29T14:25:32.852Z,25.78
2022-12-29T14:26:32.826Z,25.78
2022-12-29T14:27:32.798Z,25.78
2022-12-29T14:28:32.805Z,25.79
2022-12-29T14:29:32.775Z,25.78
2022-12-29T14:30:32.726Z,25.79
2022-12-29T14:31:32.703Z,25.76
2022-12-29T14:32:32.716Z,25.76
2022-12-29T14:33:32.646Z,25.75
2022-12-29T14:34:32.661Z,25.76
2022-12-29T14:35:32.573Z,25.75
2022-12-29T14:36:32.954Z,25.78
2022-12-29T14:37:32.495Z,25.75
2022-12-29T14:38:32.504Z,25.73
2022-12-29T14:39:32.451Z,25.72
2022-12-29T14:40:32.414Z,25.72
2022-12-29T14:41:32.364Z,25.72
2022-12-29T14:42:32.342Z,25.69
2022-12-29T14:43:32.364Z,25.70
2022-12-29T14:44:32.312Z,25.70
2022-12-29T14:45:32.278Z,25.72
2022-12-29T14:46:32.273Z,25.70
2022-12-29T14:47:32.206Z,25.70
2022-12-29T14:48:32.171Z,25.72
2022-12-29T14:49:32.139Z,25.72
2022-12-29T14:50:32.101Z,25.72
2022-12-29T14:51:32.180Z,25.70
2022-12-29T14:52:32.062Z,25.70
2022-12-29T14:53:32.035Z,25.70
2022-12-29T14:54:32.014Z,25.70
2022-12-29T14:55:31.990Z,25.69
2022-12-29T14:56:32.493Z,25.68
2022-12-29T14:57:31.936Z,25.68
2022-12-29T14:58:31.927Z,25.68
2022-12-29T14:59:31.879Z,25.68
2022-12-29T15:00:31.923Z,25.68
2022-12-29T15:01:31.905Z,25.68
2022-12-29T15:02:32.115Z,25.68
2022-12-29T15:03:31.751Z,25.65
2022-12-29T15:04:31.747Z,25.69
2022-12-29T15:05:31.708Z,25.69
2022-12-29T15:06:31.700Z,25.68
2022-12-29T15:07:31.704Z,25.66
2022-12-29T15:08:31.721Z,25.68
2022-12-29T15:09:31.600Z,25.66
2022-12-29T15:10:31.594Z,25.66
2022-12-29T15:11:31.518Z,25.66
2022-12-29T15:12:31.515Z,25.66
2022-12-29T15:13:31.461Z,25.66
2022-12-29T15:14:31.491Z,25.65
2022-12-29T15:15:31.425Z,25.65
2022-12-29T15:16:31.493Z,25.64
2022-12-29T15:17:31.345Z,25.62
2022-12-29T15:18:31.353Z,25.64
2022-12-29T15:19:31.279Z,25.64
2022-12-29T15:20:31.267Z,25.62
2022-12-29T15:21:31.948Z,25.64
2022-12-29T15:22:31.290Z,25.64
2022-12-29T15:23:31.171Z,25.64
2022-12-29T15:24:31.137Z,25.61
2022-12-29T15:25:31.098Z,25.64
2022-12-29T15:26:31.114Z,25.64
2022-12-29T15:27:31.065Z,25.64
2022-12-29T16:55:28.623Z,25.53
2022-12-29T16:56:28.600Z,25.52
2022-12-29T16:57:28.617Z,25.53
2022-12-29T16:58:28.549Z,25.52
2022-12-29T16:59:28.525Z,25.51
2022-12-29T17:00:28.540Z,25.52
2022-12-29T17:01:28.522Z,25.57
2022-12-29T17:02:28.581Z,25.53
2022-12-29T17:03:28.565Z,25.53
2022-12-29T17:04:28.357Z,25.52
2022-12-29T17:05:28.350Z,25.53
2022-12-29T17:06:28.303Z,25.55
2022-12-29T17:07:28.283Z,25.53
2022-12-29T17:08:28.309Z,25.52
2022-12-29T17:09:28.502Z,25.52
2022-12-29T17:10:28.195Z,25.55
2022-12-29T17:11:28.174Z,25.53
2022-12-29T17:12:28.140Z,25.52
2022-12-29T17:13:28.119Z,25.53
2022-12-29T17:14:28.111Z,25.52
2022-12-29T17:15:28.091Z,25.51
2022-12-29T17:16:28.211Z,25.51
2022-12-29T17:17:28.008Z,25.49
2022-12-29T17:18:28.010Z,25.52
2022-12-29T17:19:27.950Z,25.51
2022-12-29T17:20:27.911Z,25.51
2022-12-29T17:21:27.886Z,25.51
2022-12-29T17:22:27.894Z,25.51
2022-12-29T17:23:27.992Z,25.49
2022-12-29T17:24:27.799Z,25.48
2022-12-29T17:25:27.769Z,25.49
2022-12-29T17:26:27.756Z,25.51
2022-12-29T17:27:27.757Z,25.51
2022-12-29T17:28:27.728Z,25.48
2022-12-29T17:29:27.663Z,25.46
2022-12-29T17:30:33.236Z,25.49
2022-12-29T17:31:28.657Z,25.49
2022-12-29T17:32:27.615Z,25.46
2022-12-29T17:33:27.594Z,25.46
2022-12-29T17:34:27.525Z,25.46
2022-12-29T17:35:27.505Z,25.46
2022-12-29T17:36:27.433Z,25.45
2022-12-29T17:37:27.409Z,25.46
2022-12-29T17:38:27.427Z,25.45
2022-12-29T17:39:27.413Z,25.46
2022-12-29T17:40:27.326Z,25.49
2022-12-29T17:41:27.303Z,25.46
2022-12-29T17:42:27.281Z,25.46
2022-12-29T17:43:30.207Z,25.46
2022-12-29T17:44:28.231Z,25.46
2022-12-29T17:45:28.015Z,25.48
2022-12-29T17:46:27.294Z,25.48
2022-12-29T17:47:28.019Z,25.46
2022-12-29T17:48:27.154Z,25.49
2022-12-29T17:49:27.512Z,25.49
2022-12-29T17:50:27.227Z,25.46
2022-12-29T17:51:27.087Z,25.45
2022-12-29T17:52:27.060Z,25.48
2022-12-29T17:53:27.529Z,25.46
2022-12-29T17:54:27.503Z,25.49
2022-12-29T17:55:32.768Z,25.48
2022-12-29T17:56:27.885Z,25.46
2022-12-29T17:57:26.883Z,25.46
2022-12-29T17:58:26.848Z,25.48
2022-12-29T17:59:26.886Z,25.49
2022-12-29T18:00:26.781Z,25.48
2022-12-29T18:01:31.048Z,25.48
2022-12-29T18:02:26.926Z,25.48
2022-12-29T18:03:26.913Z,25.46
2022-12-29T18:04:27.511Z,25.44
2022-12-29T18:05:26.625Z,25.45
2022-12-29T18:06:26.596Z,25.45
2022-12-29T18:07:30.997Z,25.46
2022-12-29T18:08:27.554Z,25.44
2022-12-29T18:09:26.532Z,25.46
2022-12-29T18:10:26.470Z,25.46
2022-12-29T18:11:26.459Z,25.46
2022-12-29T18:12:26.420Z,25.48
2022-12-29T18:13:29.363Z,25.46
2022-12-29T18:14:27.396Z,25.48
2022-12-29T18:15:26.330Z,25.48
2022-12-29T18:16:26.439Z,25.46
2022-12-29T18:17:26.280Z,25.46
2022-12-29T18:18:26.249Z,25.48
2022-12-29T18:19:29.730Z,25.48
2022-12-29T18:20:27.543Z,25.46
2022-12-29T18:21:26.163Z,25.45
2022-12-29T18:22:26.152Z,25.48
2022-12-29T18:23:26.145Z,25.48
2022-12-29T18:24:26.069Z,25.46
2022-12-29T18:25:26.153Z,25.45
2022-12-29T18:26:28.266Z,25.46
2022-12-29T18:27:26.080Z,25.45
2022-12-29T18:28:26.062Z,25.45
2022-12-29T18:29:25.998Z,25.44
2022-12-29T18:30:26.021Z,25.45
2022-12-29T18:31:26.102Z,25.44
2022-12-29T18:32:25.925Z,25.45
2022-12-29T18:33:26.805Z,25.46
2022-12-29T18:34:25.871Z,25.45
2022-12-29T18:35:25.859Z,25.46
2022-12-29T18:36:25.828Z,25.46
2022-12-29T18:37:25.812Z,25.45
2022-12-29T18:38:25.766Z,25.46
2022-12-29T18:39:29.730Z,25.45
2022-12-29T18:40:25.789Z,25.45
2022-12-29T18:41:25.707Z,25.46
2022-12-29T18:42:25.718Z,25.44
2022-12-29T18:43:25.653Z,25.46
2022-12-29T18:44:25.627Z,25.45
2022-12-29T18:45:26.077Z,25.44
2022-12-29T18:46:25.611Z,25.44
2022-12-29T18:47:25.551Z,25.44
2022-12-29T18:48:25.500Z,25.44
2022-12-29T18:49:25.499Z,25.44
2022-12-29T18:50:25.527Z,25.44
2022-12-29T18:51:25.419Z,25.44
2022-12-29T18:52:25.427Z,25.45
2022-12-29T18:53:25.372Z,25.42
2022-12-29T18:54:25.330Z,25.42
2022-12-29T18:55:25.397Z,25.45
2022-12-29T18:56:25.281Z,25.44
2022-12-29T18:57:26.039Z,25.45
2022-12-29T18:58:30.687Z,25.46
2022-12-29T18:59:25.227Z,25.45
2022-12-29T19:00:25.251Z,25.45
2022-12-29T19:01:25.259Z,25.46
2022-12-29T19:02:25.167Z,25.45
2022-12-29T19:03:25.295Z,25.44
2022-12-29T19:04:25.060Z,25.45
2022-12-29T19:05:25.100Z,25.45
2022-12-29T19:06:25.028Z,25.45
2022-12-29T19:07:24.984Z,25.45
2022-12-29T19:08:24.961Z,25.46
2022-12-29T19:09:24.986Z,25.42
2022-12-29T19:10:24.922Z,25.45
2022-12-29T19:11:24.878Z,25.45
2022-12-29T19:12:28.304Z,25.44
2022-12-29T19:13:24.837Z,25.42
2022-12-29T19:14:24.862Z,25.44
2022-12-29T19:15:24.801Z,25.44
2022-12-29T19:16:24.830Z,25.45
2022-12-29T19:17:24.756Z,25.42
2022-12-29T19:19:24.690Z,25.42
2022-12-29T19:20:24.665Z,25.41
2022-12-29T19:21:24.633Z,25.44
2022-12-29T19:22:24.622Z,25.42
2022-12-29T19:23:24.603Z,25.42
2022-12-29T19:24:24.657Z,25.44
2022-12-29T19:25:24.523Z,25.44
2022-12-29T19:26:24.548Z,25.44
2022-12-29T19:27:24.488Z,25.45
2022-12-29T19:28:24.467Z,25.44
2022-12-29T19:29:24.410Z,25.42
2022-12-29T19:30:24.383Z,25.41
2022-12-29T19:31:25.102Z,25.41
2022-12-29T19:32:24.318Z,25.42
2022-12-29T19:33:24.359Z,25.41
2022-12-29T19:34:24.281Z,25.44
2022-12-29T19:35:24.259Z,25.42
2022-12-29T19:36:24.231Z,25.44
2022-12-29T19:37:24.257Z,25.42
2022-12-29T19:38:24.187Z,25.42
2022-12-29T19:39:24.153Z,25.42
2022-12-29T19:40:24.135Z,25.40
2022-12-29T19:41:24.108Z,25.41
2022-12-29T19:42:24.071Z,25.41
2022-12-29T19:43:24.125Z,25.40
2022-12-29T19:44:24.028Z,25.42
2022-12-29T19:45:24.005Z,25.42
2022-12-29T19:46:24.028Z,25.42
2022-12-29T19:47:28.500Z,25.42
2022-12-29T19:48:23.902Z,25.42
2022-12-29T19:49:23.919Z,25.40
2022-12-29T19:50:23.846Z,25.44
2022-12-29T19:51:23.797Z,25.42
2022-12-29T19:52:23.782Z,25.44
2022-12-29T19:53:23.796Z,25.44
2022-12-29T19:54:23.729Z,25.44
2022-12-29T19:55:23.720Z,25.45
2022-12-29T19:56:24.128Z,25.44
2022-12-29T19:57:23.652Z,25.42
2022-12-29T19:58:23.603Z,25.42
2022-12-29T19:59:23.584Z,25.41
2022-12-29T20:00:23.545Z,25.41
2022-12-29T20:01:23.730Z,25.44
2022-12-29T20:02:23.571Z,25.44
2022-12-29T20:03:23.591Z,25.42
2022-12-29T20:04:23.445Z,25.44
2022-12-29T20:05:23.431Z,25.44
2022-12-29T20:06:23.434Z,25.44
2022-12-29T20:07:23.382Z,25.45
2022-12-29T20:08:23.396Z,25.44
2022-12-29T20:09:23.298Z,25.42
2022-12-29T20:10:23.291Z,25.45
2022-12-29T20:11:23.269Z,25.44
2022-12-29T20:12:28.931Z,25.44
2022-12-29T20:13:24.208Z,25.41
2022-12-29T20:14:23.228Z,25.44
2022-12-29T20:15:23.152Z,25.44
2022-12-29T20:16:23.118Z,25.42
2022-12-29T20:18:01.971Z,25.44
2022-12-29T20:18:28.771Z,25.44
2022-12-29T20:19:24.049Z,25.45
2022-12-29T20:20:23.003Z,25.44
2022-12-29T20:21:22.954Z,25.42
2022-12-29T20:22:22.910Z,25.45
2022-12-29T20:23:22.943Z,25.42
2022-12-29T20:24:22.834Z,25.44
2022-12-29T20:26:23.782Z,25.42
2022-12-29T20:27:23.601Z,25.44
2022-12-29T20:28:22.699Z,25.45
2022-12-29T20:29:22.670Z,25.44
2022-12-29T20:30:22.673Z,25.45
2022-12-29T20:31:22.653Z,25.42
2022-12-29T20:32:22.595Z,25.41
2022-12-29T20:33:22.575Z,25.42
2022-12-29T20:34:22.500Z,25.41
2022-12-29T20:35:23.481Z,25.44
2022-12-29T20:36:22.461Z,25.45
2022-12-29T20:37:22.611Z,25.41
2022-12-29T20:38:22.373Z,25.42
2022-12-29T20:39:22.368Z,25.45
2022-12-29T20:40:22.316Z,25.46
2022-12-29T20:41:22.280Z,25.45
2022-12-29T20:42:22.250Z,25.44
2022-12-29T20:43:22.234Z,25.42
2022-12-29T20:44:22.176Z,25.42
2022-12-29T20:45:22.143Z,25.44
2022-12-29T20:46:26.344Z,25.44
2022-12-29T20:47:23.134Z,25.44
2022-12-29T20:48:22.110Z,25.42
2022-12-29T20:49:22.076Z,25.42
2022-12-29T20:50:22.046Z,25.42
2022-12-29T20:51:21.975Z,25.42
2022-12-29T20:52:21.925Z,25.42
2022-12-29T20:53:21.915Z,25.42
2022-12-29T20:54:21.870Z,25.42
2022-12-29T20:55:21.839Z,25.42
2022-12-29T20:56:21.822Z,25.42
2022-12-29T20:57:22.638Z,25.42
2022-12-29T20:58:24.220Z,25.40
2022-12-29T20:59:27.693Z,25.41
2022-12-29T21:00:23.054Z,25.41
2022-12-29T21:01:21.716Z,25.41
2022-12-29T21:02:21.961Z,25.41
2022-12-29T21:03:22.162Z,25.42
2022-12-29T21:04:21.598Z,25.41
2022-12-29T21:05:24.408Z,25.41
2022-12-29T21:06:21.609Z,25.41
2022-12-29T21:07:21.499Z,25.41
2022-12-29T21:08:21.449Z,25.42
2022-12-29T21:09:21.409Z,25.41
2022-12-29T21:10:21.464Z,25.41
2022-12-29T21:11:21.358Z,25.41
2022-12-29T21:12:21.328Z,25.40
2022-12-29T21:13:22.092Z,25.41
2022-12-29T21:14:21.233Z,25.42
2022-12-29T21:15:21.206Z,25.42
2022-12-29T21:16:21.515Z,25.42
2022-12-29T21:17:21.156Z,25.41
2022-12-29T21:18:22.089Z,25.42
2022-12-29T21:19:21.091Z,25.40
2022-12-29T21:28:21.155Z,25.42
2022-12-29T21:38:20.489Z,25.44
2022-12-29T21:39:20.438Z,25.42
2022-12-29T21:40:20.425Z,25.42
2022-12-29T21:41:20.397Z,25.42
2022-12-29T21:42:20.328Z,25.45
2022-12-29T21:43:20.304Z,25.44
2022-12-29T21:44:20.277Z,25.44
2022-12-29T21:45:21.199Z,25.45
2022-12-29T21:46:20.275Z,25.42
2022-12-29T21:47:20.226Z,25.44
2022-12-29T21:48:20.126Z,25.41
2022-12-29T21:49:20.120Z,25.42
2022-12-29T21:50:20.056Z,25.42
2022-12-29T21:51:20.925Z,25.42
2022-12-29T21:52:20.021Z,25.44
2022-12-29T21:53:19.951Z,25.44
2022-12-29T21:54:20.001Z,25.42
2022-12-29T21:55:19.871Z,25.45
2022-12-29T21:56:19.865Z,25.42
2022-12-29T21:57:21.488Z,25.42
2022-12-29T21:58:19.774Z,25.44
2022-12-29T21:59:19.745Z,25.45